sensor_id;sensor_type;location;lat;lon;timestamp;pressure;altitude;pressure_sealevel;temperature
19948;BMP180;10135;50.702;7.276;2022-08-21T00:01:20;99644.00;;;21.70
19948;BMP180;10135;50.702;7.276;2022-08-21T00:03:22;99644.00;;;21.70
19948;BMP180;10135;50.702;7.276;2022-08-21T00:05:24;99635.00;;;21.70
19948;BMP180;10135;50.702;7.276;2022-08-21T00:07:25;99640.00;;;21.60
19948;BMP180;10135;50.702;7.276;2022-08-21T00:09:26;99642.00;;;21.60
19948;BMP180;10135;50.702;7.276;2022-08-21T00:11:27;99636.00;;;21.60
19948;BMP180;10135;50.702;7.276;2022-08-21T00:13:27;99631.00;;;21.60
19948;BMP180;10135;50.702;7.276;2022-08-21T00:15:34;99634.00;;;21.50
19948;BMP180;10135;50.702;7.276;2022-08-21T00:17:36;99631.00;;;21.50
19948;BMP180;10135;50.702;7.276;2022-08-21T00:19:37;99630.00;;;21.50
19948;BMP180;10135;50.702;7.276;2022-08-21T00:21:37;99626.00;;;21.50
19948;BMP180;10135;50.702;7.276;2022-08-21T00:23:38;99629.00;;;21.50
19948;BMP180;10135;50.702;7.276;2022-08-21T00:25:41;99629.00;;;21.50
19948;BMP180;10135;50.702;7.276;2022-08-21T00:27:43;99620.00;;;21.50
19948;BMP180;10135;50.702;7.276;2022-08-21T00:29:43;99618.00;;;21.50
19948;BMP180;10135;50.702;7.276;2022-08-21T00:31:45;99618.00;;;21.50
19948;BMP180;10135;50.702;7.276;2022-08-21T00:33:46;99621.00;;;21.50
19948;BMP180;10135;50.702;7.276;2022-08-21T00:35:46;99614.00;;;21.50
19948;BMP180;10135;50.702;7.276;2022-08-21T00:37:47;99616.00;;;21.50
19948;BMP180;10135;50.702;7.276;2022-08-21T00:39:48;99621.00;;;21.50
19948;BMP180;10135;50.702;7.276;2022-08-21T00:41:49;99615.00;;;21.40
19948;BMP180;10135;50.702;7.276;2022-08-21T00:43:50;99614.00;;;21.40
19948;BMP180;10135;50.702;7.276;2022-08-21T00:45:52;99613.00;;;21.40
19948;BMP180;10135;50.702;7.276;2022-08-21T00:47:53;99611.00;;;21.30
19948;BMP180;10135;50.702;7.276;2022-08-21T00:49:55;99617.00;;;21.30
19948;BMP180;10135;50.702;7.276;2022-08-21T00:52:00;99612.00;;;21.30
19948;BMP180;10135;50.702;7.276;2022-08-21T00:54:03;99605.00;;;21.30
19948;BMP180;10135;50.702;7.276;2022-08-21T00:56:06;99610.00;;;21.30
19948;BMP180;10135;50.702;7.276;2022-08-21T00:58:11;99616.00;;;21.20
19948;BMP180;10135;50.702;7.276;2022-08-21T01:00:21;99615.00;;;21.20
19948;BMP180;10135;50.702;7.276;2022-08-21T01:02:22;99614.00;;;21.20
19948;BMP180;10135;50.702;7.276;2022-08-21T01:04:23;99617.00;;;21.20
19948;BMP180;10135;50.702;7.276;2022-08-21T01:06:24;99604.00;;;21.20
19948;BMP180;10135;50.702;7.276;2022-08-21T01:08:25;99607.00;;;21.20
19948;BMP180;10135;50.702;7.276;2022-08-21T01:10:26;99602.00;;;21.10
19948;BMP180;10135;50.702;7.276;2022-08-21T01:12:27;99605.00;;;21.10
19948;BMP180;10135;50.702;7.276;2022-08-21T01:14:28;99607.00;;;21.10
19948;BMP180;10135;50.702;7.276;2022-08-21T01:16:29;99605.00;;;21.10
19948;BMP180;10135;50.702;7.276;2022-08-21T01:18:31;99606.00;;;21.10
19948;BMP180;10135;50.702;7.276;2022-08-21T01:20:33;99607.00;;;21.10
19948;BMP180;10135;50.702;7.276;2022-08-21T01:22:34;99607.00;;;21.10
19948;BMP180;10135;50.702;7.276;2022-08-21T01:24:35;99605.00;;;21.00
19948;BMP180;10135;50.702;7.276;2022-08-21T01:26:36;99606.00;;;21.00
19948;BMP180;10135;50.702;7.276;2022-08-21T01:28:45;99608.00;;;21.00
19948;BMP180;10135;50.702;7.276;2022-08-21T01:30:51;99608.00;;;21.00
19948;BMP180;10135;50.702;7.276;2022-08-21T01:32:54;99607.00;;;21.00
19948;BMP180;10135;50.702;7.276;2022-08-21T01:34:55;99605.00;;;21.00
19948;BMP180;10135;50.702;7.276;2022-08-21T01:36:55;99603.00;;;21.00
19948;BMP180;10135;50.702;7.276;2022-08-21T01:38:56;99609.00;;;20.90
19948;BMP180;10135;50.702;7.276;2022-08-21T01:40:57;99606.00;;;20.90
19948;BMP180;10135;50.702;7.276;2022-08-21T01:42:58;99609.00;;;20.90
19948;BMP180;10135;50.702;7.276;2022-08-21T01:44:59;99609.00;;;20.90
19948;BMP180;10135;50.702;7.276;2022-08-21T01:47:03;99607.00;;;20.90
19948;BMP180;10135;50.702;7.276;2022-08-21T01:49:05;99608.00;;;20.90
19948;BMP180;10135;50.702;7.276;2022-08-21T01:51:06;99611.00;;;20.90
19948;BMP180;10135;50.702;7.276;2022-08-21T01:53:07;99610.00;;;20.90
19948;BMP180;10135;50.702;7.276;2022-08-21T01:55:10;99611.00;;;20.90
19948;BMP180;10135;50.702;7.276;2022-08-21T01:57:12;99612.00;;;20.80
19948;BMP180;10135;50.702;7.276;2022-08-21T01:59:14;99603.00;;;20.80
19948;BMP180;10135;50.702;7.276;2022-08-21T02:01:15;99605.00;;;20.80
19948;BMP180;10135;50.702;7.276;2022-08-21T02:03:16;99600.00;;;20.80
19948;BMP180;10135;50.702;7.276;2022-08-21T02:05:18;99599.00;;;20.80
19948;BMP180;10135;50.702;7.276;2022-08-21T02:07:19;99602.00;;;20.80
19948;BMP180;10135;50.702;7.276;2022-08-21T02:09:19;99597.00;;;20.80
19948;BMP180;10135;50.702;7.276;2022-08-21T02:11:22;99603.00;;;20.70
19948;BMP180;10135;50.702;7.276;2022-08-21T02:13:22;99605.00;;;20.70
19948;BMP180;10135;50.702;7.276;2022-08-21T02:15:23;99604.00;;;20.70
19948;BMP180;10135;50.702;7.276;2022-08-21T02:17:24;99607.00;;;20.70
19948;BMP180;10135;50.702;7.276;2022-08-21T02:19:24;99599.00;;;20.70
19948;BMP180;10135;50.702;7.276;2022-08-21T02:21:25;99593.00;;;20.70
19948;BMP180;10135;50.702;7.276;2022-08-21T02:23:26;99590.00;;;20.70
19948;BMP180;10135;50.702;7.276;2022-08-21T02:25:28;99589.00;;;20.70
19948;BMP180;10135;50.702;7.276;2022-08-21T02:27:29;99590.00;;;20.70
19948;BMP180;10135;50.702;7.276;2022-08-21T02:29:29;99586.00;;;20.70
19948;BMP180;10135;50.702;7.276;2022-08-21T02:31:30;99589.00;;;20.70
19948;BMP180;10135;50.702;7.276;2022-08-21T02:33:32;99591.00;;;20.70
19948;BMP180;10135;50.702;7.276;2022-08-21T02:35:33;99587.00;;;20.70
19948;BMP180;10135;50.702;7.276;2022-08-21T02:37:46;99592.00;;;20.60
19948;BMP180;10135;50.702;7.276;2022-08-21T02:39:47;99593.00;;;20.70
19948;BMP180;10135;50.702;7.276;2022-08-21T02:41:48;99584.00;;;20.60
19948;BMP180;10135;50.702;7.276;2022-08-21T02:43:49;99583.00;;;20.60
19948;BMP180;10135;50.702;7.276;2022-08-21T02:45:50;99583.00;;;20.60
19948;BMP180;10135;50.702;7.276;2022-08-21T02:47:59;99588.00;;;20.60
19948;BMP180;10135;50.702;7.276;2022-08-21T02:49:59;99590.00;;;20.60
19948;BMP180;10135;50.702;7.276;2022-08-21T02:52:00;99590.00;;;20.60
19948;BMP180;10135;50.702;7.276;2022-08-21T02:54:01;99590.00;;;20.60
19948;BMP180;10135;50.702;7.276;2022-08-21T02:56:07;99587.00;;;20.60
19948;BMP180;10135;50.702;7.276;2022-08-21T02:58:08;99584.00;;;20.60
19948;BMP180;10135;50.702;7.276;2022-08-21T03:00:10;99588.00;;;20.60
19948;BMP180;10135;50.702;7.276;2022-08-21T03:02:12;99588.00;;;20.60
19948;BMP180;10135;50.702;7.276;2022-08-21T03:04:13;99584.00;;;20.60
19948;BMP180;10135;50.702;7.276;2022-08-21T03:06:16;99590.00;;;20.50
19948;BMP180;10135;50.702;7.276;2022-08-21T03:08:18;99584.00;;;20.50
19948;BMP180;10135;50.702;7.276;2022-08-21T03:10:21;99581.00;;;20.50
19948;BMP180;10135;50.702;7.276;2022-08-21T03:12:24;99580.00;;;20.50
19948;BMP180;10135;50.702;7.276;2022-08-21T03:14:24;99581.00;;;20.50
19948;BMP180;10135;50.702;7.276;2022-08-21T03:16:25;99582.00;;;20.50
19948;BMP180;10135;50.702;7.276;2022-08-21T03:18:27;99576.00;;;20.50
19948;BMP180;10135;50.702;7.276;2022-08-21T03:20:28;99576.00;;;20.50
19948;BMP180;10135;50.702;7.276;2022-08-21T03:22:29;99576.00;;;20.50
19948;BMP180;10135;50.702;7.276;2022-08-21T03:24:29;99575.00;;;20.50
19948;BMP180;10135;50.702;7.276;2022-08-21T03:26:30;99578.00;;;20.50
19948;BMP180;10135;50.702;7.276;2022-08-21T03:28:31;99577.00;;;20.40
19948;BMP180;10135;50.702;7.276;2022-08-21T03:30:32;99575.00;;;20.40
19948;BMP180;10135;50.702;7.276;2022-08-21T03:32:33;99575.00;;;20.40
19948;BMP180;10135;50.702;7.276;2022-08-21T03:34:36;99575.00;;;20.40
19948;BMP180;10135;50.702;7.276;2022-08-21T03:36:36;99569.00;;;20.40
19948;BMP180;10135;50.702;7.276;2022-08-21T03:38:37;99584.00;;;20.40
19948;BMP180;10135;50.702;7.276;2022-08-21T03:40:38;99579.00;;;20.30
19948;BMP180;10135;50.702;7.276;2022-08-21T03:42:40;99576.00;;;20.30
19948;BMP180;10135;50.702;7.276;2022-08-21T03:44:40;99584.00;;;20.30
19948;BMP180;10135;50.702;7.276;2022-08-21T03:46:41;99591.00;;;20.30
19948;BMP180;10135;50.702;7.276;2022-08-21T03:48:42;99583.00;;;20.20
19948;BMP180;10135;50.702;7.276;2022-08-21T03:50:44;99583.00;;;20.20
19948;BMP180;10135;50.702;7.276;2022-08-21T03:52:47;99583.00;;;20.20
19948;BMP180;10135;50.702;7.276;2022-08-21T03:54:48;99581.00;;;20.20
19948;BMP180;10135;50.702;7.276;2022-08-21T03:56:50;99586.00;;;20.20
19948;BMP180;10135;50.702;7.276;2022-08-21T03:58:52;99586.00;;;20.20
19948;BMP180;10135;50.702;7.276;2022-08-21T04:00:57;99579.00;;;20.20
19948;BMP180;10135;50.702;7.276;2022-08-21T04:02:58;99585.00;;;20.20
19948;BMP180;10135;50.702;7.276;2022-08-21T04:04:58;99582.00;;;20.10
19948;BMP180;10135;50.702;7.276;2022-08-21T04:07:00;99579.00;;;20.10
19948;BMP180;10135;50.702;7.276;2022-08-21T04:09:00;99579.00;;;20.10
19948;BMP180;10135;50.702;7.276;2022-08-21T04:11:02;99588.00;;;20.10
19948;BMP180;10135;50.702;7.276;2022-08-21T04:13:05;99588.00;;;20.10
19948;BMP180;10135;50.702;7.276;2022-08-21T04:15:06;99592.00;;;20.10
19948;BMP180;10135;50.702;7.276;2022-08-21T04:17:07;99590.00;;;20.10
19948;BMP180;10135;50.702;7.276;2022-08-21T04:19:08;99593.00;;;20.00
19948;BMP180;10135;50.702;7.276;2022-08-21T04:21:11;99593.00;;;20.00
19948;BMP180;10135;50.702;7.276;2022-08-21T04:23:12;99592.00;;;20.00
19948;BMP180;10135;50.702;7.276;2022-08-21T04:25:14;99594.00;;;20.00
19948;BMP180;10135;50.702;7.276;2022-08-21T04:27:15;99588.00;;;20.00
19948;BMP180;10135;50.702;7.276;2022-08-21T04:29:16;99597.00;;;20.00
19948;BMP180;10135;50.702;7.276;2022-08-21T04:31:16;99594.00;;;20.00
19948;BMP180;10135;50.702;7.276;2022-08-21T04:33:18;99599.00;;;19.90
19948;BMP180;10135;50.702;7.276;2022-08-21T04:35:21;99599.00;;;19.90
19948;BMP180;10135;50.702;7.276;2022-08-21T04:37:22;99602.00;;;19.90
19948;BMP180;10135;50.702;7.276;2022-08-21T04:39:23;99601.00;;;19.90
19948;BMP180;10135;50.702;7.276;2022-08-21T04:41:23;99602.00;;;19.90
19948;BMP180;10135;50.702;7.276;2022-08-21T04:43:24;99596.00;;;19.90
19948;BMP180;10135;50.702;7.276;2022-08-21T04:45:33;99603.00;;;19.90
19948;BMP180;10135;50.702;7.276;2022-08-21T04:47:34;99606.00;;;19.90
19948;BMP180;10135;50.702;7.276;2022-08-21T04:49:35;99604.00;;;19.90
19948;BMP180;10135;50.702;7.276;2022-08-21T04:51:37;99605.00;;;19.90
19948;BMP180;10135;50.702;7.276;2022-08-21T04:53:49;99606.00;;;19.90
19948;BMP180;10135;50.702;7.276;2022-08-21T04:55:52;99607.00;;;19.90
19948;BMP180;10135;50.702;7.276;2022-08-21T04:57:55;99608.00;;;19.90
19948;BMP180;10135;50.702;7.276;2022-08-21T04:59:57;99610.00;;;19.90
19948;BMP180;10135;50.702;7.276;2022-08-21T05:01:59;99614.00;;;19.90
19948;BMP180;10135;50.702;7.276;2022-08-21T05:04:04;99615.00;;;19.90
19948;BMP180;10135;50.702;7.276;2022-08-21T05:06:08;99609.00;;;19.90
19948;BMP180;10135;50.702;7.276;2022-08-21T05:08:16;99614.00;;;19.90
19948;BMP180;10135;50.702;7.276;2022-08-21T05:10:17;99609.00;;;20.00
19948;BMP180;10135;50.702;7.276;2022-08-21T05:12:18;99613.00;;;20.00
19948;BMP180;10135;50.702;7.276;2022-08-21T05:14:19;99617.00;;;20.00
19948;BMP180;10135;50.702;7.276;2022-08-21T05:16:20;99617.00;;;20.00
19948;BMP180;10135;50.702;7.276;2022-08-21T05:18:21;99614.00;;;20.10
19948;BMP180;10135;50.702;7.276;2022-08-21T05:20:21;99618.00;;;20.10
19948;BMP180;10135;50.702;7.276;2022-08-21T05:22:23;99616.00;;;20.10
19948;BMP180;10135;50.702;7.276;2022-08-21T05:24:24;99623.00;;;20.20
19948;BMP180;10135;50.702;7.276;2022-08-21T05:26:25;99618.00;;;20.20
19948;BMP180;10135;50.702;7.276;2022-08-21T05:28:25;99619.00;;;20.20
19948;BMP180;10135;50.702;7.276;2022-08-21T05:30:26;99614.00;;;20.30
19948;BMP180;10135;50.702;7.276;2022-08-21T05:32:27;99618.00;;;20.30
19948;BMP180;10135;50.702;7.276;2022-08-21T05:34:28;99614.00;;;20.30
19948;BMP180;10135;50.702;7.276;2022-08-21T05:36:29;99608.00;;;20.40
19948;BMP180;10135;50.702;7.276;2022-08-21T05:38:30;99608.00;;;20.40
19948;BMP180;10135;50.702;7.276;2022-08-21T05:40:32;99607.00;;;20.40
19948;BMP180;10135;50.702;7.276;2022-08-21T05:42:33;99608.00;;;20.50
19948;BMP180;10135;50.702;7.276;2022-08-21T05:44:34;99610.00;;;20.50
19948;BMP180;10135;50.702;7.276;2022-08-21T05:46:34;99602.00;;;20.60
19948;BMP180;10135;50.702;7.276;2022-08-21T05:48:36;99606.00;;;20.60
19948;BMP180;10135;50.702;7.276;2022-08-21T05:50:37;99608.00;;;20.60
19948;BMP180;10135;50.702;7.276;2022-08-21T05:52:38;99609.00;;;20.70
19948;BMP180;10135;50.702;7.276;2022-08-21T05:54:39;99612.00;;;20.70
19948;BMP180;10135;50.702;7.276;2022-08-21T05:56:39;99608.00;;;20.80
19948;BMP180;10135;50.702;7.276;2022-08-21T05:58:40;99605.00;;;20.80
19948;BMP180;10135;50.702;7.276;2022-08-21T06:00:42;99614.00;;;20.80
19948;BMP180;10135;50.702;7.276;2022-08-21T06:02:43;99618.00;;;20.90
19948;BMP180;10135;50.702;7.276;2022-08-21T06:04:43;99617.00;;;20.90
19948;BMP180;10135;50.702;7.276;2022-08-21T06:06:44;99612.00;;;21.00
19948;BMP180;10135;50.702;7.276;2022-08-21T06:08:45;99614.00;;;21.00
19948;BMP180;10135;50.702;7.276;2022-08-21T06:10:47;99616.00;;;21.10
19948;BMP180;10135;50.702;7.276;2022-08-21T06:12:53;99613.00;;;21.10
19948;BMP180;10135;50.702;7.276;2022-08-21T06:14:54;99616.00;;;21.20
19948;BMP180;10135;50.702;7.276;2022-08-21T06:17:06;99619.00;;;21.30
19948;BMP180;10135;50.702;7.276;2022-08-21T06:19:07;99624.00;;;21.40
19948;BMP180;10135;50.702;7.276;2022-08-21T06:21:08;99624.00;;;21.50
19948;BMP180;10135;50.702;7.276;2022-08-21T06:23:09;99630.00;;;21.50
19948;BMP180;10135;50.702;7.276;2022-08-21T06:25:10;99631.00;;;21.70
19948;BMP180;10135;50.702;7.276;2022-08-21T06:27:11;99631.00;;;21.70
19948;BMP180;10135;50.702;7.276;2022-08-21T06:29:13;99631.00;;;21.80
19948;BMP180;10135;50.702;7.276;2022-08-21T06:31:23;99627.00;;;21.80
19948;BMP180;10135;50.702;7.276;2022-08-21T06:33:24;99625.00;;;21.90
19948;BMP180;10135;50.702;7.276;2022-08-21T06:35:26;99623.00;;;21.90
19948;BMP180;10135;50.702;7.276;2022-08-21T06:37:26;99622.00;;;21.90
19948;BMP180;10135;50.702;7.276;2022-08-21T06:39:27;99629.00;;;21.90
19948;BMP180;10135;50.702;7.276;2022-08-21T06:41:28;99625.00;;;22.00
19948;BMP180;10135;50.702;7.276;2022-08-21T06:43:29;99624.00;;;22.00
19948;BMP180;10135;50.702;7.276;2022-08-21T06:45:30;99615.00;;;22.00
19948;BMP180;10135;50.702;7.276;2022-08-21T06:47:31;99618.00;;;22.00
19948;BMP180;10135;50.702;7.276;2022-08-21T06:49:31;99622.00;;;22.00
19948;BMP180;10135;50.702;7.276;2022-08-21T06:51:32;99623.00;;;22.00
19948;BMP180;10135;50.702;7.276;2022-08-21T06:53:33;99621.00;;;22.00
19948;BMP180;10135;50.702;7.276;2022-08-21T06:55:34;99621.00;;;22.00
19948;BMP180;10135;50.702;7.276;2022-08-21T06:57:35;99617.00;;;22.00
19948;BMP180;10135;50.702;7.276;2022-08-21T06:59:36;99619.00;;;22.00
19948;BMP180;10135;50.702;7.276;2022-08-21T07:01:36;99621.00;;;22.00
19948;BMP180;10135;50.702;7.276;2022-08-21T07:03:43;99617.00;;;22.00
19948;BMP180;10135;50.702;7.276;2022-08-21T07:05:44;99617.00;;;22.10
19948;BMP180;10135;50.702;7.276;2022-08-21T07:07:46;99625.00;;;22.10
19948;BMP180;10135;50.702;7.276;2022-08-21T07:09:47;99621.00;;;22.10
19948;BMP180;10135;50.702;7.276;2022-08-21T07:11:52;99618.00;;;22.10
19948;BMP180;10135;50.702;7.276;2022-08-21T07:13:53;99620.00;;;22.10
19948;BMP180;10135;50.702;7.276;2022-08-21T07:15:56;99612.00;;;22.20
19948;BMP180;10135;50.702;7.276;2022-08-21T07:17:58;99613.00;;;22.20
19948;BMP180;10135;50.702;7.276;2022-08-21T07:19:59;99610.00;;;22.20
19948;BMP180;10135;50.702;7.276;2022-08-21T07:22:02;99609.00;;;22.20
19948;BMP180;10135;50.702;7.276;2022-08-21T07:24:03;99615.00;;;22.30
19948;BMP180;10135;50.702;7.276;2022-08-21T07:26:04;99612.00;;;22.30
19948;BMP180;10135;50.702;7.276;2022-08-21T07:28:04;99606.00;;;22.30
19948;BMP180;10135;50.702;7.276;2022-08-21T07:30:06;99615.00;;;22.30
19948;BMP180;10135;50.702;7.276;2022-08-21T07:32:07;99617.00;;;22.30
19948;BMP180;10135;50.702;7.276;2022-08-21T07:34:08;99618.00;;;22.40
19948;BMP180;10135;50.702;7.276;2022-08-21T07:36:09;99615.00;;;22.40
19948;BMP180;10135;50.702;7.276;2022-08-21T07:38:10;99619.00;;;22.40
19948;BMP180;10135;50.702;7.276;2022-08-21T07:40:11;99618.00;;;22.50
19948;BMP180;10135;50.702;7.276;2022-08-21T07:42:11;99618.00;;;22.50
19948;BMP180;10135;50.702;7.276;2022-08-21T07:44:12;99615.00;;;22.50
19948;BMP180;10135;50.702;7.276;2022-08-21T07:46:13;99614.00;;;22.60
19948;BMP180;10135;50.702;7.276;2022-08-21T07:48:14;99619.00;;;22.60
19948;BMP180;10135;50.702;7.276;2022-08-21T07:50:16;99613.00;;;22.60
19948;BMP180;10135;50.702;7.276;2022-08-21T07:52:17;99614.00;;;22.70
19948;BMP180;10135;50.702;7.276;2022-08-21T07:54:17;99617.00;;;22.70
19948;BMP180;10135;50.702;7.276;2022-08-21T07:56:19;99622.00;;;22.70
19948;BMP180;10135;50.702;7.276;2022-08-21T07:58:19;99623.00;;;22.80
19948;BMP180;10135;50.702;7.276;2022-08-21T08:00:24;99627.00;;;22.80
19948;BMP180;10135;50.702;7.276;2022-08-21T08:02:27;99622.00;;;22.80
19948;BMP180;10135;50.702;7.276;2022-08-21T08:04:28;99627.00;;;22.90
19948;BMP180;10135;50.702;7.276;2022-08-21T08:06:29;99632.00;;;22.90
19948;BMP180;10135;50.702;7.276;2022-08-21T08:08:31;99623.00;;;22.90
19948;BMP180;10135;50.702;7.276;2022-08-21T08:10:32;99629.00;;;23.00
19948;BMP180;10135;50.702;7.276;2022-08-21T08:12:35;99626.00;;;23.00
19948;BMP180;10135;50.702;7.276;2022-08-21T08:14:36;99623.00;;;23.10
19948;BMP180;10135;50.702;7.276;2022-08-21T08:16:37;99626.00;;;23.10
19948;BMP180;10135;50.702;7.276;2022-08-21T08:18:37;99628.00;;;23.20
19948;BMP180;10135;50.702;7.276;2022-08-21T08:20:38;99627.00;;;23.20
19948;BMP180;10135;50.702;7.276;2022-08-21T08:22:40;99617.00;;;23.30
19948;BMP180;10135;50.702;7.276;2022-08-21T08:24:41;99617.00;;;23.30
19948;BMP180;10135;50.702;7.276;2022-08-21T08:26:42;99614.00;;;23.30
19948;BMP180;10135;50.702;7.276;2022-08-21T08:28:44;99617.00;;;23.40
19948;BMP180;10135;50.702;7.276;2022-08-21T08:30:45;99613.00;;;23.50
19948;BMP180;10135;50.702;7.276;2022-08-21T08:32:47;99611.00;;;23.50
19948;BMP180;10135;50.702;7.276;2022-08-21T08:34:48;99616.00;;;23.50
19948;BMP180;10135;50.702;7.276;2022-08-21T08:36:52;99608.00;;;23.60
19948;BMP180;10135;50.702;7.276;2022-08-21T08:38:52;99610.00;;;23.60
19948;BMP180;10135;50.702;7.276;2022-08-21T08:41:13;99607.00;;;23.60
19948;BMP180;10135;50.702;7.276;2022-08-21T08:43:14;99607.00;;;23.70
19948;BMP180;10135;50.702;7.276;2022-08-21T08:45:20;99603.00;;;23.70
19948;BMP180;10135;50.702;7.276;2022-08-21T08:47:29;99605.00;;;23.80
19948;BMP180;10135;50.702;7.276;2022-08-21T08:49:37;99608.00;;;23.90
19948;BMP180;10135;50.702;7.276;2022-08-21T08:51:51;99607.00;;;23.90
19948;BMP180;10135;50.702;7.276;2022-08-21T08:54:01;99605.00;;;24.00
19948;BMP180;10135;50.702;7.276;2022-08-21T08:56:04;99594.00;;;24.00
19948;BMP180;10135;50.702;7.276;2022-08-21T08:58:08;99597.00;;;24.10
19948;BMP180;10135;50.702;7.276;2022-08-21T09:00:15;99595.00;;;24.10
19948;BMP180;10135;50.702;7.276;2022-08-21T09:02:17;99598.00;;;24.20
19948;BMP180;10135;50.702;7.276;2022-08-21T09:04:25;99596.00;;;24.20
19948;BMP180;10135;50.702;7.276;2022-08-21T09:06:43;99586.00;;;24.20
19948;BMP180;10135;50.702;7.276;2022-08-21T09:12:02;99586.00;;;24.40
19948;BMP180;10135;50.702;7.276;2022-08-21T09:14:45;99586.00;;;24.40
19948;BMP180;10135;50.702;7.276;2022-08-21T09:17:19;99589.00;;;24.40
19948;BMP180;10135;50.702;7.276;2022-08-21T09:20:07;99586.00;;;24.50
19948;BMP180;10135;50.702;7.276;2022-08-21T09:22:42;99576.00;;;24.50
19948;BMP180;10135;50.702;7.276;2022-08-21T09:25:18;99572.00;;;24.60
19948;BMP180;10135;50.702;7.276;2022-08-21T09:27:21;99573.00;;;24.60
19948;BMP180;10135;50.702;7.276;2022-08-21T09:29:27;99573.00;;;24.70
19948;BMP180;10135;50.702;7.276;2022-08-21T09:31:35;99579.00;;;24.70
19948;BMP180;10135;50.702;7.276;2022-08-21T09:33:39;99579.00;;;24.80
19948;BMP180;10135;50.702;7.276;2022-08-21T09:35:53;99577.00;;;24.80
19948;BMP180;10135;50.702;7.276;2022-08-21T09:38:01;99574.00;;;24.80
19948;BMP180;10135;50.702;7.276;2022-08-21T09:42:36;99568.00;;;24.90
19948;BMP180;10135;50.702;7.276;2022-08-21T09:44:40;99564.00;;;24.90
19948;BMP180;10135;50.702;7.276;2022-08-21T09:46:51;99560.00;;;24.90
19948;BMP180;10135;50.702;7.276;2022-08-21T09:49:00;99552.00;;;25.00
19948;BMP180;10135;50.702;7.276;2022-08-21T09:51:39;99562.00;;;25.00
19948;BMP180;10135;50.702;7.276;2022-08-21T09:56:33;99553.00;;;25.10
19948;BMP180;10135;50.702;7.276;2022-08-21T09:58:53;99561.00;;;25.10
19948;BMP180;10135;50.702;7.276;2022-08-21T10:01:04;99555.00;;;25.10
19948;BMP180;10135;50.702;7.276;2022-08-21T10:03:16;99552.00;;;25.20
19948;BMP180;10135;50.702;7.276;2022-08-21T10:05:25;99549.00;;;25.20
19948;BMP180;10135;50.702;7.276;2022-08-21T10:07:31;99548.00;;;25.30
19948;BMP180;10135;50.702;7.276;2022-08-21T10:09:32;99554.00;;;25.40
19948;BMP180;10135;50.702;7.276;2022-08-21T10:11:33;99546.00;;;25.40
19948;BMP180;10135;50.702;7.276;2022-08-21T10:13:55;99545.00;;;25.50
19948;BMP180;10135;50.702;7.276;2022-08-21T10:18:43;99538.00;;;25.70
19948;BMP180;10135;50.702;7.276;2022-08-21T10:26:39;99531.00;;;25.90
19948;BMP180;10135;50.702;7.276;2022-08-21T10:31:50;99518.00;;;26.10
19948;BMP180;10135;50.702;7.276;2022-08-21T10:37:01;99520.00;;;26.30
19948;BMP180;10135;50.702;7.276;2022-08-21T10:39:35;99516.00;;;26.40
19948;BMP180;10135;50.702;7.276;2022-08-21T10:42:23;99526.00;;;26.50
19948;BMP180;10135;50.702;7.276;2022-08-21T10:45:02;99522.00;;;26.50
19948;BMP180;10135;50.702;7.276;2022-08-21T10:47:21;99518.00;;;26.60
19948;BMP180;10135;50.702;7.276;2022-08-21T10:49:44;99515.00;;;26.70
19948;BMP180;10135;50.702;7.276;2022-08-21T10:52:08;99517.00;;;26.70
19948;BMP180;10135;50.702;7.276;2022-08-21T10:54:46;99515.00;;;26.80
19948;BMP180;10135;50.702;7.276;2022-08-21T10:57:02;99519.00;;;26.90
19948;BMP180;10135;50.702;7.276;2022-08-21T10:59:48;99511.00;;;27.00
19948;BMP180;10135;50.702;7.276;2022-08-21T11:02:13;99511.00;;;27.10
19948;BMP180;10135;50.702;7.276;2022-08-21T11:04:34;99514.00;;;27.10
19948;BMP180;10135;50.702;7.276;2022-08-21T11:06:43;99505.00;;;27.20
19948;BMP180;10135;50.702;7.276;2022-08-21T11:08:52;99508.00;;;27.30
19948;BMP180;10135;50.702;7.276;2022-08-21T11:11:15;99511.00;;;27.30
19948;BMP180;10135;50.702;7.276;2022-08-21T11:13:43;99513.00;;;27.30
19948;BMP180;10135;50.702;7.276;2022-08-21T11:15:56;99505.00;;;27.40
19948;BMP180;10135;50.702;7.276;2022-08-21T11:18:22;99510.00;;;27.40
19948;BMP180;10135;50.702;7.276;2022-08-21T11:20:38;99513.00;;;27.50
19948;BMP180;10135;50.702;7.276;2022-08-21T11:22:52;99510.00;;;27.60
19948;BMP180;10135;50.702;7.276;2022-08-21T11:27:59;99492.00;;;27.70
19948;BMP180;10135;50.702;7.276;2022-08-21T11:30:02;99502.00;;;27.70
19948;BMP180;10135;50.702;7.276;2022-08-21T11:32:55;99500.00;;;27.80
19948;BMP180;10135;50.702;7.276;2022-08-21T11:38:19;99493.00;;;27.90
19948;BMP180;10135;50.702;7.276;2022-08-21T11:41:05;99490.00;;;28.00
19948;BMP180;10135;50.702;7.276;2022-08-21T11:43:34;99493.00;;;28.00
19948;BMP180;10135;50.702;7.276;2022-08-21T11:45:54;99485.00;;;28.00
19948;BMP180;10135;50.702;7.276;2022-08-21T11:50:48;99488.00;;;28.10
19948;BMP180;10135;50.702;7.276;2022-08-21T11:58:05;99485.00;;;28.10
19948;BMP180;10135;50.702;7.276;2022-08-21T12:00:32;99485.00;;;28.20
19948;BMP180;10135;50.702;7.276;2022-08-21T12:02:38;99484.00;;;28.20
19948;BMP180;10135;50.702;7.276;2022-08-21T12:05:02;99482.00;;;28.30
19948;BMP180;10135;50.702;7.276;2022-08-21T12:07:28;99480.00;;;28.30
19948;BMP180;10135;50.702;7.276;2022-08-21T12:09:35;99480.00;;;28.40
19948;BMP180;10135;50.702;7.276;2022-08-21T12:12:00;99471.00;;;28.40
19948;BMP180;10135;50.702;7.276;2022-08-21T12:16:27;99468.00;;;28.40
19948;BMP180;10135;50.702;7.276;2022-08-21T12:18:31;99469.00;;;28.50
19948;BMP180;10135;50.702;7.276;2022-08-21T12:20:56;99480.00;;;28.50
19948;BMP180;10135;50.702;7.276;2022-08-21T12:25:17;99468.00;;;28.60
19948;BMP180;10135;50.702;7.276;2022-08-21T12:29:50;99468.00;;;28.70
19948;BMP180;10135;50.702;7.276;2022-08-21T12:32:02;99468.00;;;28.70
19948;BMP180;10135;50.702;7.276;2022-08-21T12:34:09;99467.00;;;28.80
19948;BMP180;10135;50.702;7.276;2022-08-21T12:36:15;99460.00;;;28.80
19948;BMP180;10135;50.702;7.276;2022-08-21T12:38:32;99460.00;;;28.80
19948;BMP180;10135;50.702;7.276;2022-08-21T12:41:01;99468.00;;;28.80
19948;BMP180;10135;50.702;7.276;2022-08-21T12:43:04;99463.00;;;28.80
19948;BMP180;10135;50.702;7.276;2022-08-21T12:45:19;99456.00;;;28.80
19948;BMP180;10135;50.702;7.276;2022-08-21T12:47:44;99463.00;;;28.90